Terminal Aerodrome Forecast
Issued by NWS

Home | Current Version | Previous Version | Text Only | Print | Product List | Glossary On
Versions: 1 2 3 4 5 6 7 8 9 10 11 12 13 14
000
FTUS45 KABQ 281728
TAFAEG
TAF
KAEG 281728Z 2818/2918 35005KT P6SM SCT250
     FM282000 06007KT P6SM FEW080 SCT250
     FM290000 12007KT P6SM VCSH BKN080
     FM290300 11006KT P6SM SCT080 SCT250=

USA.gov is the U.S. government's official web portal to all federal, state and local government web resources and services.